Time;durP1;ratioP1;P1;durP2;ratioP2;P2;SDS_P1;SDS_P2;PMS_P1;PMS_P2;Temp;Humidity;BMP_temperature;BMP_pressure;BME280_temperature;BME280_humidity;BME280_pressure;Samples;Min_cycle;Max_cycle;Signal;HPM_P1;HPM_P2
2022/04/25 00:00:16;;;;;;;9.70;6.57;;;;;;;7.54;99.90;100752.94;6336251;22;20030;-78
2022/04/25 00:02:42;;;;;;;13.75;6.68;;;;;;;7.46;100.00;100735.28;6308576;22;20340;-78
2022/04/25 00:05:07;;;;;;;12.85;6.70;;;;;;;7.39;100.00;100747.75;6328056;22;20025;-77
2022/04/25 00:07:33;;;;;;;9.93;7.05;;;;;;;7.30;100.00;100742.78;6335610;22;20301;-76
2022/04/25 00:09:58;;;;;;;10.85;6.55;;;;;;;7.29;100.00;100755.25;6331307;22;20491;-77
2022/04/25 00:15:45;;;;;;;11.57;7.30;;;;;;;7.15;100.00;100742.88;6336238;22;20462;-77
2022/04/25 00:18:10;;;;;;;12.07;7.40;;;;;;;7.10;100.00;100746.13;6301896;22;20011;-77
2022/04/25 00:20:36;;;;;;;10.27;6.18;;;;;;;7.11;100.00;100752.25;6334527;22;20031;-77
2022/04/25 00:23:05;;;;;;;13.02;6.50;;;;;;;7.06;100.00;100752.84;6301903;22;20026;-77
2022/04/25 00:25:34;;;;;;;13.52;7.40;;;;;;;7.05;100.00;100764.47;6335827;22;20014;-77
2022/04/25 00:28:01;;;;;;;9.30;6.55;;;;;;;7.04;100.00;100757.53;6308799;22;20430;-77
2022/04/25 00:33:48;;;;;;;11.63;6.70;;;;;;;6.98;100.00;100757.47;6336022;22;20049;-77
2022/04/25 00:36:13;;;;;;;10.77;6.65;;;;;;;6.91;100.00;100752.09;6329046;22;20007;-78
2022/04/25 00:38:38;;;;;;;11.52;6.82;;;;;;;6.87;100.00;100750.84;6335982;22;20412;-77
2022/04/25 00:47:59;;;;;;;12.82;7.05;;;;;;;6.72;100.00;100756.25;6335859;22;20079;-77
2022/04/25 00:53:47;;;;;;;12.18;6.85;;;;;;;6.67;100.00;100756.00;6335933;22;20021;-78
2022/04/25 00:56:17;;;;;;;14.43;6.82;;;;;;;6.66;100.00;100753.53;6301467;22;20011;-77
2022/04/25 00:58:44;;;;;;;13.40;7.28;;;;;;;6.63;100.00;100751.22;6335819;22;20056;-77
2022/04/25 01:08:15;;;;;;;11.98;7.32;;;;;;;6.48;100.00;100756.63;6335907;22;20018;-77
2022/04/25 01:10:42;;;;;;;15.80;7.63;;;;;;;6.38;100.00;100746.31;6335601;22;20021;-77
2022/04/25 01:13:07;;;;;;;11.30;7.53;;;;;;;6.39;100.00;100763.06;6335800;22;20029;-77
2022/04/25 01:15:34;;;;;;;14.07;8.38;;;;;;;6.29;100.00;100742.13;6328623;22;20085;-77
2022/04/25 01:17:59;;;;;;;13.73;7.70;;;;;;;6.31;100.00;100747.25;6308401;22;20010;-77
2022/04/25 01:20:25;;;;;;;12.40;8.15;;;;;;;6.26;100.00;100742.50;6334348;22;20003;-77
2022/04/25 01:28:49;;;;;;;14.93;8.50;;;;;;;6.23;100.00;100748.19;6330378;22;20030;-77
2022/04/25 01:31:15;;;;;;;14.32;7.90;;;;;;;6.19;100.00;100752.22;6337062;22;20017;-77
2022/04/25 01:33:40;;;;;;;11.85;8.50;;;;;;;6.14;100.00;100747.50;6331503;22;20019;-77
2022/04/25 01:36:05;;;;;;;18.23;8.57;;;;;;;6.18;100.00;100748.75;6335790;22;20420;-77
2022/04/25 01:41:52;;;;;;;12.60;8.13;;;;;;;6.01;100.00;100741.19;6337097;22;20025;-77
2022/04/25 01:44:17;;;;;;;14.00;8.25;;;;;;;6.05;100.00;100755.72;6336942;22;20029;-77
2022/04/25 01:46:43;;;;;;;12.35;8.25;;;;;;;6.02;100.00;100751.63;6330026;22;20034;-77
2022/04/25 01:49:08;;;;;;;11.65;7.97;;;;;;;6.03;100.00;100755.91;6336920;22;20006;-77
2022/04/25 01:51:33;;;;;;;13.73;9.00;;;;;;;5.99;100.00;100741.38;6336911;22;20002;-77
2022/04/25 01:57:20;;;;;;;12.57;8.38;;;;;;;5.90;100.00;100747.81;6336993;22;20083;-77
2022/04/25 01:59:46;;;;;;;13.35;8.80;;;;;;;5.91;100.00;100754.75;6330046;22;20093;-78
2022/04/25 02:09:00;;;;;;;18.95;9.68;;;;;;;5.81;100.00;100749.72;6336870;22;20017;-77
2022/04/25 02:14:47;;;;;;;17.65;9.65;;;;;;;5.78;100.00;100752.75;6336939;22;20057;-77
2022/04/25 02:20:34;;;;;;;18.30;9.63;;;;;;;5.68;100.00;100744.22;6336858;22;20467;-77
2022/04/25 02:23:00;;;;;;;13.18;9.02;;;;;;;5.68;100.00;100748.72;6336848;22;20002;-77
2022/04/25 02:25:26;;;;;;;13.70;10.00;;;;;;;5.63;100.00;100743.97;6329794;22;20010;-77
2022/04/25 02:27:51;;;;;;;14.38;9.30;;;;;;;5.63;100.00;100751.94;6336701;22;20007;-77
2022/04/25 02:30:17;;;;;;;17.57;9.57;;;;;;;5.57;100.00;100747.38;6329498;22;20159;-76
2022/04/25 02:32:43;;;;;;;18.75;9.45;;;;;;;5.53;100.00;100748.75;6336817;22;20255;-77
2022/04/25 02:35:08;;;;;;;15.95;9.80;;;;;;;5.54;100.00;100745.09;6336159;22;20085;-77
2022/04/25 02:37:34;;;;;;;16.70;9.80;;;;;;;5.53;100.00;100741.59;6303548;22;20037;-77
2022/04/25 02:39:59;;;;;;;13.60;9.63;;;;;;;5.49;100.00;100740.34;6336740;22;20002;-77
2022/04/25 02:42:24;;;;;;;15.50;9.45;;;;;;;5.51;100.00;100737.50;6330001;22;20256;-76
2022/04/25 02:44:50;;;;;;;17.17;10.15;;;;;;;5.52;100.00;100744.44;6308933;22;20026;-76
2022/04/25 02:47:15;;;;;;;13.90;9.25;;;;;;;5.52;100.00;100752.41;6335910;22;20305;-76
2022/04/25 02:49:40;;;;;;;17.08;9.77;;;;;;;5.48;100.00;100749.25;6330515;22;20014;-77
2022/04/25 02:52:06;;;;;;;17.77;9.83;;;;;;;5.48;100.00;100745.78;6309231;22;20011;-77
2022/04/25 02:54:32;;;;;;;21.52;10.40;;;;;;;5.45;100.00;100735.56;6302653;22;20709;-77
2022/04/25 02:56:57;;;;;;;16.40;9.52;;;;;;;5.47;100.00;100738.84;6308971;22;20011;-77
2022/04/25 02:59:22;;;;;;;19.97;10.43;;;;;;;5.45;100.00;100746.97;6309005;22;20013;-77
2022/04/25 03:01:48;;;;;;;16.70;9.40;;;;;;;5.42;100.00;100743.88;6329714;22;20299;-77
2022/04/25 03:04:13;;;;;;;17.10;10.20;;;;;;;5.33;100.00;100734.38;6336749;22;20010;-77
2022/04/25 03:06:38;;;;;;;16.23;10.20;;;;;;;5.38;100.00;100740.75;6302748;22;20439;-77
2022/04/25 03:09:05;;;;;;;15.95;10.07;;;;;;;5.39;100.00;100746.91;6309022;22;20041;-77
2022/04/25 03:11:30;;;;;;;14.82;9.90;;;;;;;5.33;100.00;100739.69;6336614;22;20021;-76
2022/04/25 03:17:17;;;;;;;13.95;9.80;;;;;;;5.35;100.00;100740.31;6336920;22;20089;-76
2022/04/25 03:19:44;;;;;;;16.70;10.25;;;;;;;5.32;100.00;100736.19;6302480;22;20038;-77
2022/04/25 03:22:09;;;;;;;15.38;10.35;;;;;;;5.22;100.00;100725.88;6334946;22;20007;-76
2022/04/25 03:24:34;;;;;;;17.70;10.95;;;;;;;5.29;100.00;100747.16;6302296;22;20014;-77
2022/04/25 03:27:00;;;;;;;17.17;10.35;;;;;;;5.29;100.00;100747.16;6308837;22;20007;-77
2022/04/25 03:29:25;;;;;;;17.90;10.40;;;;;;;5.24;100.00;100747.72;6308813;22;20010;-77
2022/04/25 03:31:50;;;;;;;15.98;10.77;;;;;;;5.19;100.00;100744.75;6302489;22;20384;-77
2022/04/25 03:34:17;;;;;;;15.20;9.98;;;;;;;5.20;100.00;100743.78;6308876;22;20011;-77
2022/04/25 03:36:45;;;;;;;17.65;10.60;;;;;;;5.20;100.00;100748.25;6329594;22;20049;-77
2022/04/25 03:39:11;;;;;;;15.13;9.77;;;;;;;5.18;100.00;100745.78;6336346;22;20327;-77
2022/04/25 03:41:36;;;;;;;19.25;10.50;;;;;;;5.17;100.00;100749.44;6331518;22;20002;-77
2022/04/25 03:44:03;;;;;;;16.30;11.50;;;;;;;5.13;100.00;100748.16;6333840;22;19998;-77
2022/04/25 03:46:29;;;;;;;17.48;11.57;;;;;;;5.12;100.00;100754.44;6308518;22;20011;-77
2022/04/25 03:48:54;;;;;;;17.05;11.18;;;;;;;5.08;100.00;100755.00;6329649;22;20416;-77
2022/04/25 03:51:20;;;;;;;19.90;12.00;;;;;;;4.99;100.00;100748.97;6336314;22;20012;-77
2022/04/25 03:53:45;;;;;;;16.65;10.98;;;;;;;5.00;100.00;100750.59;6332332;22;20077;-76
2022/04/25 03:59:32;;;;;;;19.02;11.45;;;;;;;4.96;100.00;100757.28;6336479;22;20057;-76
2022/04/25 04:01:57;;;;;;;18.92;11.70;;;;;;;4.96;100.00;100759.91;6329378;22;20010;-76
2022/04/25 04:04:23;;;;;;;15.52;11.02;;;;;;;4.94;100.00;100759.28;6336176;22;20048;-76
2022/04/25 04:06:48;;;;;;;16.23;11.30;;;;;;;4.95;100.00;100763.56;6329166;22;20014;-77
2022/04/25 04:11:57;;;;;;;16.95;11.63;;;;;;;4.95;100.00;100769.69;6329452;22;20379;-77
2022/04/25 04:14:22;;;;;;;18.98;12.10;;;;;;;4.94;100.00;100760.09;6336173;22;20030;-77
2022/04/25 04:16:48;;;;;;;17.40;12.10;;;;;;;4.92;100.00;100763.94;6336068;22;20007;-77
2022/04/25 04:19:13;;;;;;;17.88;11.88;;;;;;;4.94;100.00;100775.19;6301640;22;20069;-77
2022/04/25 04:21:38;;;;;;;21.65;12.13;;;;;;;4.92;100.00;100777.19;6334552;22;20497;-77
2022/04/25 04:24:04;;;;;;;20.33;12.48;;;;;;;4.89;100.00;100780.97;6329143;22;20039;-77
2022/04/25 04:26:29;;;;;;;19.20;11.98;;;;;;;4.89;100.00;100780.16;6335843;22;20060;-77
2022/04/25 04:28:56;;;;;;;22.00;13.10;;;;;;;4.88;100.00;100786.47;6336017;22;20007;-77
2022/04/25 04:31:21;;;;;;;19.25;12.10;;;;;;;4.85;100.00;100784.16;6329072;22;20011;-77
2022/04/25 04:37:08;;;;;;;27.92;13.80;;;;;;;4.84;100.00;100785.19;6336166;22;20064;-77
2022/04/25 04:39:34;;;;;;;21.17;12.85;;;;;;;4.87;100.00;100783.00;6335887;22;20368;-77
2022/04/25 04:41:59;;;;;;;24.90;13.77;;;;;;;4.86;100.00;100786.63;6330714;22;20023;-77
2022/04/25 04:44:24;;;;;;;23.15;14.25;;;;;;;4.87;100.00;100782.16;6334126;22;20034;-77
2022/04/25 04:46:50;;;;;;;24.77;13.40;;;;;;;4.83;100.00;100786.19;6335844;22;19999;-78
2022/04/25 04:49:16;;;;;;;24.90;14.07;;;;;;;4.88;100.00;100795.22;6329051;22;20043;-77
2022/04/25 04:51:42;;;;;;;22.80;13.80;;;;;;;4.86;100.00;100789.28;6334081;22;20014;-77
2022/04/25 04:54:08;;;;;;;24.92;14.25;;;;;;;4.90;100.00;100800.34;6333674;22;20010;-78
2022/04/25 04:56:33;;;;;;;21.83;13.68;;;;;;;4.93;100.00;100802.66;6333805;22;20014;-77
2022/04/25 04:58:59;;;;;;;28.50;13.23;;;;;;;5.00;100.00;100794.81;6337303;22;20078;-77
2022/04/25 05:01:26;;;;;;;26.40;13.68;;;;;;;5.14;100.00;100809.94;6303124;22;20007;-78
2022/04/25 05:03:58;;;;;;;28.00;14.43;;;;;;;5.23;100.00;100811.53;6337145;22;20037;-79
2022/04/25 05:06:24;;;;;;;22.35;14.25;;;;;;;5.32;100.00;100812.25;6331995;22;21489;-77
2022/04/25 05:08:49;;;;;;;23.35;14.20;;;;;;;5.35;100.00;100818.03;6308042;22;20018;-78
2022/04/25 05:11:15;;;;;;;26.55;14.18;;;;;;;5.42;100.00;100813.63;6337221;22;20002;-78
2022/04/25 05:13:40;;;;;;;24.33;14.30;;;;;;;5.57;100.00;100824.28;6330229;22;20042;-77
2022/04/25 05:16:06;;;;;;;27.30;14.65;;;;;;;5.71;100.00;100835.88;6335663;22;20331;-77
2022/04/25 05:18:33;;;;;;;29.10;14.60;;;;;;;5.82;100.00;100828.31;6330134;22;20010;-77
2022/04/25 05:20:59;;;;;;;24.08;13.98;;;;;;;5.96;100.00;100825.84;6337089;22;20006;-78
2022/04/25 05:26:46;;;;;;;27.42;13.60;;;;;;;6.20;100.00;100830.88;6337137;22;20064;-77
2022/04/25 05:29:14;;;;;;;24.88;13.98;;;;;;;6.31;100.00;100830.38;6330998;22;20010;-78
2022/04/25 05:31:39;;;;;;;21.63;15.02;;;;;;;6.42;100.00;100839.72;6307853;22;20071;-78
2022/04/25 05:34:05;;;;;;;23.38;15.40;;;;;;;6.47;100.00;100830.16;6309268;22;20003;-78
2022/04/25 05:36:30;;;;;;;23.80;14.57;;;;;;;6.61;100.00;100833.78;6302839;22;20060;-78
2022/04/25 05:38:55;;;;;;;26.52;14.55;;;;;;;6.72;100.00;100843.94;6309273;22;20009;-78
2022/04/25 05:41:21;;;;;;;25.97;15.37;;;;;;;6.75;100.00;100840.06;6330148;22;20011;-77
2022/04/25 05:47:08;;;;;;;24.35;14.48;;;;;;;6.97;100.00;100863.00;6337690;22;20021;-77
2022/04/25 05:52:19;;;;;;;32.83;14.38;;;;;;;7.29;100.00;100863.47;6251119;22;20166;-77
2022/04/25 05:54:46;;;;;;;29.20;16.15;;;;;;;7.32;100.00;100852.44;6336980;22;20428;-78
2022/04/25 05:57:11;;;;;;;28.88;15.65;;;;;;;7.35;100.00;100865.34;6336931;22;20089;-78
2022/04/25 05:59:37;;;;;;;28.80;16.40;;;;;;;7.39;100.00;100856.78;6328852;22;20427;-78
2022/04/25 06:02:02;;;;;;;27.77;15.17;;;;;;;7.53;100.00;100871.03;6336857;22;19999;-78
2022/04/25 06:04:27;;;;;;;28.33;15.55;;;;;;;7.56;100.00;100869.81;6302076;22;20281;-78
2022/04/25 06:06:53;;;;;;;27.40;15.45;;;;;;;7.62;100.00;100872.53;6336824;22;20031;-78
2022/04/25 06:09:19;;;;;;;28.45;16.45;;;;;;;7.68;100.00;100877.06;6330018;22;20478;-77
2022/04/25 06:11:45;;;;;;;27.42;16.45;;;;;;;7.67;100.00;100870.09;6336856;22;20003;-77
2022/04/25 06:14:10;;;;;;;29.23;16.00;;;;;;;7.69;100.00;100872.56;6309132;22;20331;-78
2022/04/25 06:16:35;;;;;;;33.38;17.50;;;;;;;7.74;100.00;100876.28;6329828;22;20085;-77
2022/04/25 06:19:02;;;;;;;32.20;17.30;;;;;;;7.84;100.00;100883.94;6336778;22;20003;-77
2022/04/25 06:21:27;;;;;;;28.70;16.45;;;;;;;7.89;100.00;100881.53;6329764;22;20259;-78
2022/04/25 06:23:53;;;;;;;28.17;17.10;;;;;;;7.97;100.00;100883.19;6336826;22;20366;-78
2022/04/25 06:26:18;;;;;;;33.63;18.38;;;;;;;7.99;100.00;100875.84;6329770;22;20086;-78
2022/04/25 06:28:43;;;;;;;34.60;18.48;;;;;;;7.99;100.00;100875.84;6336787;22;20445;-78
2022/04/25 06:34:30;;;;;;;38.05;19.48;;;;;;;8.13;100.00;100874.06;6336943;22;20049;-78
2022/04/25 06:36:56;;;;;;;39.03;19.80;;;;;;;8.33;100.00;100873.16;6335336;22;20427;-77
2022/04/25 06:39:21;;;;;;;39.65;20.05;;;;;;;8.49;100.00;100879.19;6304225;22;20029;-77
2022/04/25 06:41:46;;;;;;;42.40;21.10;;;;;;;8.60;100.00;100878.59;6336769;22;20060;-78
2022/04/25 06:44:12;;;;;;;37.83;20.40;;;;;;;8.71;100.00;100887.88;6329896;22;20117;-78
2022/04/25 06:46:37;;;;;;;39.08;20.45;;;;;;;8.69;100.00;100888.06;6336840;22;20296;-78
2022/04/25 06:49:21;;;;;;;42.45;20.83;;;;;;;8.75;100.00;100895.25;6302564;22;20377;-78
2022/04/25 06:51:56;;;;;;;38.78;22.65;;;;;;;8.87;100.00;100896.31;6336737;22;20002;-78
2022/04/25 06:54:23;;;;;;;44.67;20.52;;;;;;;8.97;100.00;100888.78;6329800;22;20019;-78
2022/04/25 07:00:11;;;;;;;44.20;19.90;;;;;;;9.21;100.00;100900.69;6329691;22;20018;-77
2022/04/25 07:02:37;;;;;;;40.25;21.55;;;;;;;9.29;100.00;100902.34;6308907;22;20010;-78
2022/04/25 07:05:07;;;;;;;46.88;23.25;;;;;;;9.28;100.00;100906.88;6308797;22;20011;-78
2022/04/25 07:07:32;;;;;;;46.92;23.48;;;;;;;9.43;100.00;100903.16;6329590;22;20013;-78
2022/04/25 07:09:58;;;;;;;58.90;23.70;;;;;;;9.56;100.00;100905.84;6336540;22;20007;-78
2022/04/25 07:12:23;;;;;;;60.58;23.30;;;;;;;9.72;100.00;100899.25;6302418;22;20018;-77
2022/04/25 07:14:49;;;;;;;45.33;21.95;;;;;;;9.75;100.00;100902.34;6336576;22;20006;-78
2022/04/25 07:17:14;;;;;;;52.33;24.35;;;;;;;9.83;100.00;100895.94;6329724;22;20030;-78
2022/04/25 07:19:40;;;;;;;47.05;23.65;;;;;;;9.93;99.77;100910.53;6336465;22;20007;-78
2022/04/25 07:30:58;;;;;;;51.65;23.67;;;;;;;9.66;100.00;100910.78;6336500;22;20067;-78
2022/04/25 07:33:26;;;;;;;56.67;26.80;;;;;;;9.61;100.00;100916.72;6308974;22;20002;-78
2022/04/25 07:35:53;;;;;;;52.60;25.38;;;;;;;9.57;100.00;100921.66;6296723;22;20003;-78
2022/04/25 07:41:42;;;;;;;55.03;25.00;;;;;;;9.53;100.00;100925.75;6336619;22;20102;-78
2022/04/25 07:44:08;;;;;;;51.17;25.55;;;;;;;9.55;100.00;100922.91;6336449;22;20051;-78
2022/04/25 07:46:33;;;;;;;55.93;25.70;;;;;;;9.48;100.00;100922.88;6328098;22;20011;-78
2022/04/25 07:52:20;;;;;;;58.00;24.25;;;;;;;9.42;100.00;100934.38;6336414;22;20397;-77
2022/04/25 07:54:45;;;;;;;51.05;25.08;;;;;;;9.37;100.00;100933.34;6336554;22;20291;-77
2022/04/25 08:00:32;;;;;;;51.33;28.45;;;;;;;8.72;100.00;100935.66;6336653;22;20232;-78
2022/04/25 08:06:20;;;;;;;65.28;29.02;;;;;;;8.31;100.00;100941.78;6336264;22;20284;-79
2022/04/25 08:08:47;;;;;;;65.53;29.65;;;;;;;8.19;100.00;100946.03;6329180;22;20423;-78
2022/04/25 08:11:13;;;;;;;60.63;28.58;;;;;;;8.08;100.00;100950.03;6336184;22;20078;-79
2022/04/25 08:20:22;;;;;;;65.65;28.33;;;;;;;7.85;100.00;100962.78;6336362;22;20025;-81
2022/04/25 08:26:09;;;;;;;70.13;31.67;;;;;;;7.75;100.00;100971.09;6336462;22;20290;-82
2022/04/25 08:31:56;;;;;;;78.72;32.30;;;;;;;7.84;100.00;100976.28;6337949;22;20021;-83
2022/04/25 08:34:23;;;;;;;80.32;35.55;;;;;;;7.83;100.00;100975.47;6337805;22;20034;-84
2022/04/25 08:36:48;;;;;;;84.95;34.97;;;;;;;7.90;100.00;100980.84;6337768;22;20018;-83
2022/04/25 08:39:13;;;;;;;88.00;34.85;;;;;;;7.89;100.00;100971.22;6303725;22;20011;-83
2022/04/25 08:45:02;;;;;;;78.72;32.75;;;;;;;8.01;100.00;100988.28;6337758;22;20057;-84
2022/04/25 08:47:32;;;;;;;89.32;35.45;;;;;;;8.02;100.00;100989.94;6337496;22;20038;-84
2022/04/25 08:49:58;;;;;;;87.93;35.25;;;;;;;7.99;100.00;100993.00;6303566;22;20010;-83
2022/04/25 08:52:25;;;;;;;92.68;37.35;;;;;;;8.00;100.00;100995.44;6337680;22;20030;-83
2022/04/25 08:54:52;;;;;;;96.50;34.88;;;;;;;7.92;100.00;100997.44;6337685;22;20052;-82
2022/04/25 08:57:18;;;;;;;86.53;35.28;;;;;;;7.94;100.00;100998.06;6330728;22;20018;-83
2022/04/25 08:59:46;;;;;;;90.28;36.25;;;;;;;7.91;100.00;100993.13;6310017;22;20006;-82
2022/04/25 09:02:12;;;;;;;111.93;40.65;;;;;;;7.96;100.00;101001.38;6330962;22;20006;-83
2022/04/25 09:07:59;;;;;;;100.65;39.40;;;;;;;8.02;100.00;101005.91;6337760;22;20029;-83
2022/04/25 09:13:46;;;;;;;110.45;39.03;;;;;;;8.10;100.00;101020.94;6337635;22;20014;-82
2022/04/25 09:19:34;;;;;;;106.78;39.17;;;;;;;8.07;100.00;101017.63;6337752;22;20374;-83
2022/04/25 09:22:00;;;;;;;129.15;45.78;;;;;;;8.10;100.00;101019.09;6337415;22;20405;-83
2022/04/25 09:24:28;;;;;;;134.10;45.72;;;;;;;8.08;100.00;101021.94;6308503;22;20010;-82
2022/04/25 09:30:20;;;;;;;123.28;42.33;;;;;;;8.25;100.00;101029.66;6337513;22;20017;-83
2022/04/25 09:36:07;;;;;;;114.43;39.17;;;;;;;8.13;100.00;101032.03;6337379;22;20017;-83
2022/04/25 09:45:58;;;;;;;108.35;37.47;;;;;;;8.05;100.00;101035.63;6337376;22;20462;-83
2022/04/25 09:48:24;;;;;;;91.47;35.35;;;;;;;7.97;100.00;101030.47;6332754;22;20010;-85
2022/04/25 09:51:04;;;;;;;94.30;33.95;;;;;;;7.86;100.00;101033.66;6335112;22;20007;-84
2022/04/25 09:53:52;;;;;;;96.57;34.17;;;;;;;7.79;100.00;101032.75;6337449;22;20106;-83
2022/04/25 09:59:44;;;;;;;94.00;33.75;;;;;;;7.66;100.00;101033.47;6337253;22;20014;-83
2022/04/25 10:05:43;;;;;;;97.40;34.47;;;;;;;7.75;100.00;101044.78;6337163;22;20037;-83
2022/04/25 10:08:11;;;;;;;99.38;34.50;;;;;;;7.78;100.00;101042.56;6330268;22;20321;-83
2022/04/25 10:10:41;;;;;;;123.20;38.00;;;;;;;7.81;100.00;101046.72;6309412;22;20014;-82
2022/04/25 10:13:09;;;;;;;114.53;38.25;;;;;;;7.78;100.00;101039.09;6330067;22;20018;-83
2022/04/25 10:15:36;;;;;;;118.18;39.33;;;;;;;7.91;100.00;101049.03;6337121;22;20089;-82
2022/04/25 10:18:04;;;;;;;118.78;37.83;;;;;;;8.05;100.00;101053.47;6332608;22;20006;-82
2022/04/25 10:23:52;;;;;;;115.78;37.75;;;;;;;8.44;100.00;101065.47;6337249;22;20021;-82
2022/04/25 10:26:17;;;;;;;109.80;36.85;;;;;;;8.50;100.00;101062.84;6336935;22;20081;-82
2022/04/25 10:28:50;;;;;;;108.05;39.95;;;;;;;8.68;100.00;101068.53;6309479;22;20042;-82
2022/04/25 10:34:59;;;;;;;84.20;31.45;;;;;;;8.55;100.00;101057.75;6337088;22;20274;-81
2022/04/25 10:37:32;;;;;;;86.63;32.55;;;;;;;8.62;100.00;101079.13;6302756;22;20007;-82
2022/04/25 10:47:13;;;;;;;65.38;26.13;;;;;;;8.36;100.00;101088.56;6336813;22;20021;-82
2022/04/25 10:49:52;;;;;;;66.05;27.70;;;;;;;8.25;100.00;101094.41;6316441;22;20010;-83
2022/04/25 10:55:43;;;;;;;66.65;28.52;;;;;;;8.16;100.00;101081.44;6337212;22;20018;-84
2022/04/25 10:58:08;;;;;;;65.35;27.55;;;;;;;8.25;100.00;101096.25;6337009;22;20009;-82
2022/04/25 11:04:03;;;;;;;64.65;27.85;;;;;;;8.41;100.00;101100.50;6337209;22;20228;-83
2022/04/25 11:06:28;;;;;;;74.57;30.13;;;;;;;8.47;100.00;101107.72;6330047;22;20344;-82
2022/04/25 11:12:16;;;;;;;64.28;27.67;;;;;;;8.54;100.00;101101.41;6337324;22;20317;-83
2022/04/25 11:18:30;;;;;;;70.15;29.00;;;;;;;8.24;100.00;101106.06;6337084;22;20017;-83
2022/04/25 11:24:33;;;;;;;78.25;29.98;;;;;;;8.18;100.00;101108.69;6337169;22;20017;-82
2022/04/25 11:34:00;;;;;;;85.38;31.35;;;;;;;8.29;100.00;101116.16;6336861;22;20094;-82
2022/04/25 11:40:05;;;;;;;76.47;32.13;;;;;;;8.44;100.00;101124.09;6337024;22;20435;-83
2022/04/25 11:45:53;;;;;;;78.22;29.90;;;;;;;8.46;100.00;101130.06;6336930;22;20029;-82
2022/04/25 11:51:40;;;;;;;82.35;32.65;;;;;;;8.73;100.00;101134.56;6336925;22;20348;-82
2022/04/25 11:54:08;;;;;;;80.32;33.72;;;;;;;8.85;100.00;101124.19;6302775;22;20011;-82
2022/04/25 12:03:21;;;;;;;79.57;32.00;;;;;;;9.48;100.00;101133.75;6335954;22;20018;-82
2022/04/25 12:19:00;;;;;;;71.90;29.70;;;;;;;9.65;100.00;101144.06;6336676;22;20072;-82
2022/04/25 12:21:25;;;;;;;69.22;31.30;;;;;;;9.43;100.00;101140.69;6332761;22;20010;-82
2022/04/25 12:27:13;;;;;;;70.70;30.42;;;;;;;9.21;100.00;101147.97;6336616;22;20397;-82
2022/04/25 12:30:07;;;;;;;67.95;29.67;;;;;;;9.07;100.00;101147.09;6328546;22;20007;-82
2022/04/25 12:32:33;;;;;;;73.70;31.95;;;;;;;9.00;100.00;101143.56;6336408;22;20446;-82
2022/04/25 12:34:58;;;;;;;76.05;31.55;;;;;;;9.04;100.00;101138.66;6302454;22;20003;-82
2022/04/25 12:37:23;;;;;;;82.07;32.92;;;;;;;9.13;100.00;101140.16;6309145;22;20002;-82
2022/04/25 12:40:04;;;;;;;88.05;34.80;;;;;;;9.36;100.00;101146.00;6302174;22;20018;-82
2022/04/25 12:42:46;;;;;;;86.07;33.85;;;;;;;9.60;100.00;101147.34;6336190;22;20442;-82
2022/04/25 12:45:12;;;;;;;80.32;33.47;;;;;;;9.75;100.00;101131.97;6333429;22;20009;-82
2022/04/25 12:50:59;;;;;;;75.28;29.95;;;;;;;10.16;100.00;101134.53;6336212;22;20336;-82
2022/04/25 12:53:38;;;;;;;66.53;28.38;;;;;;;10.23;100.00;101135.41;6330181;22;20011;-82
2022/04/25 12:56:04;;;;;;;64.15;27.48;;;;;;;10.10;100.00;101135.34;6308458;22;20106;-83
2022/04/25 13:02:22;;;;;;;62.92;28.13;;;;;;;10.37;100.00;101143.41;6336224;22;20047;-83
2022/04/25 13:04:50;;;;;;;70.22;28.02;;;;;;;10.61;100.00;101142.78;6309233;22;20018;-84
2022/04/25 13:07:15;;;;;;;65.97;30.42;;;;;;;10.68;100.00;101138.25;6308595;22;20002;-82
2022/04/25 13:13:02;;;;;;;69.95;31.40;;;;;;;10.61;100.00;101137.44;6335986;22;20511;-82
2022/04/25 13:15:31;;;;;;;69.50;28.80;;;;;;;10.72;100.00;101144.88;6330310;22;20014;-82
2022/04/25 13:17:58;;;;;;;71.90;28.92;;;;;;;10.83;100.00;101146.06;6309687;22;20459;-82
2022/04/25 13:20:25;;;;;;;66.03;29.52;;;;;;;10.91;100.00;101151.19;6337420;22;20007;-82
2022/04/25 13:22:51;;;;;;;61.80;28.52;;;;;;;10.95;100.00;101157.78;6330468;22;20446;-82
2022/04/25 13:28:38;;;;;;;69.72;29.42;;;;;;;10.93;100.00;101145.63;6337706;22;20393;-82
2022/04/25 13:34:26;;;;;;;67.10;27.88;;;;;;;10.98;100.00;101151.19;6337847;22;20025;-82
2022/04/25 13:36:51;;;;;;;63.00;28.48;;;;;;;11.09;100.00;101155.91;6337676;22;20601;-82
2022/04/25 13:39:17;;;;;;;66.18;29.02;;;;;;;11.30;100.00;101147.63;6303112;22;20025;-83
2022/04/25 13:41:42;;;;;;;72.85;31.40;;;;;;;11.41;100.00;101146.94;6337380;22;20384;-82
2022/04/25 13:51:14;;;;;;;68.45;30.52;;;;;;;11.40;100.00;101153.34;6337331;22;20343;-82
2022/04/25 13:53:41;;;;;;;66.57;30.73;;;;;;;11.05;100.00;101146.66;6337313;22;20015;-82
2022/04/25 13:56:07;;;;;;;69.55;30.40;;;;;;;10.89;100.00;101144.41;6303867;22;20466;-82
2022/04/25 13:58:38;;;;;;;68.90;30.27;;;;;;;10.65;100.00;101137.84;6308859;22;20011;-82
2022/04/25 14:01:09;;;;;;;77.55;32.55;;;;;;;10.40;100.00;101145.66;6309940;22;20419;-83
2022/04/25 14:03:34;;;;;;;85.80;35.45;;;;;;;10.20;100.00;101143.81;6330274;22;20423;-83
2022/04/25 14:09:21;;;;;;;85.15;34.35;;;;;;;10.09;100.00;101144.38;6337304;22;20014;-82
2022/04/25 14:11:47;;;;;;;100.72;36.63;;;;;;;10.11;100.00;101139.66;6309534;22;20006;-81
2022/04/25 14:14:13;;;;;;;94.25;35.42;;;;;;;10.36;100.00;101150.59;6327803;22;20451;-82
2022/04/25 14:20:00;;;;;;;97.95;37.38;;;;;;;10.60;100.00;101151.03;6337231;22;20017;-83
2022/04/25 14:22:26;;;;;;;101.82;38.17;;;;;;;10.67;100.00;101149.16;6337194;22;20026;-82
2022/04/25 14:24:51;;;;;;;101.78;36.58;;;;;;;10.62;100.00;101149.78;6309240;22;20009;-83
2022/04/25 14:27:16;;;;;;;103.82;39.63;;;;;;;10.62;100.00;101152.47;6329768;22;20021;-83
2022/04/25 14:29:42;;;;;;;101.88;36.47;;;;;;;10.56;100.00;101139.94;6309561;22;20003;-84
2022/04/25 14:32:07;;;;;;;101.65;37.15;;;;;;;10.57;100.00;101152.25;6330164;22;20081;-83
2022/04/25 14:34:32;;;;;;;105.68;37.72;;;;;;;10.62;100.00;101163.16;6336924;22;20085;-82
2022/04/25 14:36:58;;;;;;;99.32;37.08;;;;;;;10.78;100.00;101164.59;6309807;22;20011;-83
2022/04/25 14:39:24;;;;;;;98.68;34.15;;;;;;;10.82;100.00;101157.81;6330207;22;20010;-81
2022/04/25 14:45:11;;;;;;;85.88;29.33;;;;;;;11.03;99.97;101159.44;6337106;22;20017;-82
2022/04/25 14:47:36;;;;;;;97.18;36.22;;;;;;;11.10;100.00;101165.56;6334910;22;20090;-82
2022/04/25 14:55:31;;;;;;;87.97;33.75;;;;;;;10.93;100.00;101167.03;6330825;22;20444;-81
2022/04/25 14:57:57;;;;;;;89.88;34.35;;;;;;;10.75;99.91;101165.03;6309071;22;20090;-81
2022/04/25 15:00:23;;;;;;;94.13;34.92;;;;;;;10.71;100.00;101175.31;6309321;22;20478;-80
2022/04/25 15:06:10;;;;;;;94.80;36.03;;;;;;;10.66;100.00;101177.75;6336984;22;20022;-80
2022/04/25 15:11:57;;;;;;;82.57;32.90;;;;;;;10.66;100.00;101172.41;6337121;22;20017;-80
2022/04/25 15:14:23;;;;;;;83.22;33.75;;;;;;;10.59;100.00;101178.78;6330126;22;20015;-80
2022/04/25 15:20:10;;;;;;;95.00;35.28;;;;;;;10.42;100.00;101189.09;6330137;22;20475;-80
2022/04/25 15:25:57;;;;;;;82.82;32.78;;;;;;;10.35;100.00;101197.06;6336676;22;20453;-81
2022/04/25 15:31:44;;;;;;;91.63;33.65;;;;;;;10.22;100.00;101191.72;6336750;22;20078;-82
2022/04/25 15:41:31;;;;;;;78.45;32.20;;;;;;;10.58;100.00;101204.72;6337060;22;20016;-80
2022/04/25 15:47:19;;;;;;;87.47;34.75;;;;;;;10.51;100.00;101196.69;6336927;22;20030;-80
2022/04/25 15:53:05;;;;;;;80.68;32.33;;;;;;;10.46;100.00;101215.19;6337591;22;20450;-79
2022/04/25 15:58:52;;;;;;;83.10;31.77;;;;;;;10.34;100.00;101197.28;6336774;22;20017;-79
2022/04/25 16:04:39;;;;;;;69.65;30.15;;;;;;;10.62;99.75;101195.25;6337172;22;20064;-80